Time;durP1;ratioP1;P1;durP2;ratioP2;P2;SDS_P1;SDS_P2;PMS_P1;PMS_P2;Temp;Humidity;BMP_temperature;BMP_pressure;BME280_temperature;BME280_humidity;BME280_pressure;Samples;Min_cycle;Max_cycle;Signal;HPM_P1;HPM_P2
2023/06/12 00:00:43;;;;;;;5.13;3.08;;;15.60;99.90;;;;;;6181421;23;20020;-80
2023/06/12 00:03:09;;;;;;;5.00;2.95;;;15.60;99.90;;;;;;6155164;23;20040;-83
2023/06/12 00:05:38;;;;;;;3.45;2.95;;;15.50;99.90;;;;;;6155241;23;20104;-82
2023/06/12 00:08:05;;;;;;;3.85;2.72;;;15.50;99.90;;;;;;6157123;23;20003;-80
2023/06/12 00:10:31;;;;;;;4.07;2.85;;;15.50;99.90;;;;;;6156849;23;20001;-80
2023/06/12 00:12:56;;;;;;;4.28;2.97;;;15.50;99.90;;;;;;6186042;23;20072;-80
2023/06/12 00:15:22;;;;;;;5.07;2.70;;;15.50;99.90;;;;;;6184248;23;20040;-80
2023/06/12 00:17:48;;;;;;;5.50;3.00;;;15.50;99.90;;;;;;6184932;23;20419;-80
2023/06/12 00:20:13;;;;;;;4.07;3.17;;;15.40;99.90;;;;;;6185083;23;20476;-80
2023/06/12 00:22:40;;;;;;;5.70;3.17;;;15.50;99.90;;;;;;6157628;23;20151;-80
2023/06/12 00:25:07;;;;;;;5.32;2.92;;;15.40;99.90;;;;;;6185130;23;19997;-80
2023/06/12 00:27:33;;;;;;;8.95;3.30;;;15.40;99.90;;;;;;6186002;23;20031;-81
2023/06/12 00:29:58;;;;;;;5.75;3.40;;;15.40;99.90;;;;;;6158238;23;20028;-80
2023/06/12 00:32:24;;;;;;;6.50;2.83;;;15.30;99.90;;;;;;6183669;23;20020;-81
2023/06/12 00:34:50;;;;;;;4.97;2.90;;;15.30;99.90;;;;;;6184311;23;20005;-81
2023/06/12 00:37:17;;;;;;;8.07;2.72;;;15.30;99.90;;;;;;6154775;23;20012;-82
2023/06/12 00:39:46;;;;;;;3.83;2.70;;;15.20;99.90;;;;;;6156934;23;20009;-81
2023/06/12 00:42:12;;;;;;;5.80;3.08;;;15.30;99.90;;;;;;6158135;23;20019;-81
2023/06/12 00:44:37;;;;;;;4.63;3.15;;;15.30;99.90;;;;;;6157544;23;20092;-80
2023/06/12 00:47:04;;;;;;;3.88;2.97;;;15.20;99.90;;;;;;6160384;23;20016;-81
2023/06/12 00:49:30;;;;;;;7.80;3.60;;;15.20;99.90;;;;;;6159162;23;20005;-81
2023/06/12 00:51:55;;;;;;;4.63;3.17;;;15.10;99.90;;;;;;6152914;23;20036;-81
2023/06/12 00:54:24;;;;;;;6.65;3.08;;;15.20;99.90;;;;;;6158204;23;20001;-81
2023/06/12 00:56:50;;;;;;;4.55;3.00;;;15.10;99.90;;;;;;6185741;23;20059;-83
2023/06/12 00:59:16;;;;;;;6.28;3.15;;;15.10;99.90;;;;;;6154114;23;20497;-81
2023/06/12 01:01:42;;;;;;;3.30;2.90;;;15.10;99.90;;;;;;6156163;23;20044;-81
2023/06/12 01:04:09;;;;;;;5.60;3.25;;;15.10;99.90;;;;;;6156345;23;20013;-81
2023/06/12 01:06:55;;;;;;;7.28;3.00;;;15.10;99.90;;;;;;6159180;23;20044;-81
2023/06/12 01:09:48;;;;;;;7.83;3.37;;;15.00;99.90;;;;;;6159173;23;20009;-80
2023/06/12 01:12:15;;;;;;;4.00;3.00;;;14.90;99.90;;;;;;6158048;23;20220;-81
2023/06/12 01:14:45;;;;;;;5.72;3.25;;;14.90;99.90;;;;;;6158828;23;20005;-80
2023/06/12 01:17:10;;;;;;;5.13;3.08;;;14.90;99.90;;;;;;6158873;23;20092;-81
2023/06/12 01:19:36;;;;;;;5.53;3.17;;;14.90;99.90;;;;;;6157075;23;19997;-81
2023/06/12 01:22:08;;;;;;;7.93;4.30;;;14.90;99.90;;;;;;6185241;23;20001;-80
2023/06/12 01:25:07;;;;;;;5.20;3.13;;;14.90;99.90;;;;;;6157124;23;20346;-82
2023/06/12 01:27:54;;;;;;;7.18;3.33;;;14.90;99.90;;;;;;6157116;23;20392;-81
2023/06/12 01:30:54;;;;;;;5.93;2.90;;;14.90;99.90;;;;;;6182981;23;20009;-81
2023/06/12 01:33:30;;;;;;;5.72;3.55;;;14.80;99.90;;;;;;6157711;23;20501;-82
2023/06/12 01:35:58;;;;;;;4.43;2.97;;;14.80;99.90;;;;;;6154838;23;20024;-80
2023/06/12 01:38:28;;;;;;;3.38;2.80;;;14.80;99.90;;;;;;6156820;23;20095;-81
2023/06/12 01:40:55;;;;;;;5.10;3.20;;;14.70;99.90;;;;;;6156904;23;20069;-80
2023/06/12 01:43:23;;;;;;;7.63;3.28;;;14.80;99.90;;;;;;6156372;23;20092;-81
2023/06/12 01:45:48;;;;;;;3.83;3.10;;;14.70;99.90;;;;;;6183012;23;19997;-81
2023/06/12 01:48:14;;;;;;;5.95;3.28;;;14.70;99.90;;;;;;6156862;23;20398;-81
2023/06/12 01:50:40;;;;;;;5.93;3.28;;;14.70;99.90;;;;;;6181511;23;20118;-81
2023/06/12 01:53:07;;;;;;;5.78;2.95;;;14.70;99.90;;;;;;6165887;23;20589;-81
2023/06/12 01:55:33;;;;;;;5.97;3.85;;;14.70;99.90;;;;;;6179269;23;20009;-82
2023/06/12 01:57:59;;;;;;;7.47;3.20;;;14.60;99.90;;;;;;6207045;23;20028;-82
2023/06/12 02:00:24;;;;;;;4.63;3.10;;;14.60;99.90;;;;;;6173879;23;20005;-82
2023/06/12 02:02:55;;;;;;;7.07;3.65;;;14.60;99.90;;;;;;6170776;23;20516;-82
2023/06/12 02:05:21;;;;;;;7.97;3.05;;;14.50;99.90;;;;;;6166727;23;20001;-81
2023/06/12 02:07:46;;;;;;;6.18;3.15;;;14.50;99.90;;;;;;6185817;23;20055;-82
2023/06/12 02:10:12;;;;;;;4.28;3.28;;;14.50;99.90;;;;;;6159598;23;20041;-81
2023/06/12 02:12:37;;;;;;;6.88;3.45;;;14.50;99.90;;;;;;6158732;23;20012;-81
2023/06/12 02:15:04;;;;;;;3.92;3.10;;;14.50;99.90;;;;;;6160813;23;20011;-81
2023/06/12 02:17:31;;;;;;;5.25;3.15;;;14.50;99.90;;;;;;6159882;23;20001;-82
2023/06/12 02:19:57;;;;;;;6.47;3.35;;;14.50;99.90;;;;;;6166009;23;20032;-82
2023/06/12 02:22:22;;;;;;;5.85;3.67;;;14.50;99.90;;;;;;6197341;23;20015;-82
2023/06/12 02:24:48;;;;;;;4.65;3.53;;;14.50;99.90;;;;;;6167694;23;20001;-82
2023/06/12 02:27:14;;;;;;;5.68;2.80;;;14.50;99.90;;;;;;6167278;23;20008;-81
2023/06/12 02:29:39;;;;;;;7.35;3.55;;;14.50;99.90;;;;;;6166844;23;20013;-82
2023/06/12 02:32:05;;;;;;;5.18;3.00;;;14.50;99.90;;;;;;6166026;23;20013;-82
2023/06/12 02:34:30;;;;;;;5.18;3.08;;;14.50;99.90;;;;;;6166420;23;20087;-81
2023/06/12 02:36:56;;;;;;;7.95;3.33;;;14.50;99.90;;;;;;6163339;23;20027;-80
2023/06/12 02:39:22;;;;;;;6.07;3.28;;;14.50;99.90;;;;;;6166272;23;20016;-80
2023/06/12 02:41:48;;;;;;;6.63;3.60;;;14.50;99.90;;;;;;6162020;23;20029;-81
2023/06/12 02:44:14;;;;;;;6.32;3.20;;;14.50;99.90;;;;;;6182557;23;20008;-82
2023/06/12 02:46:51;;;;;;;4.93;3.65;;;14.50;99.90;;;;;;6182761;23;20004;-81
2023/06/12 02:49:17;;;;;;;6.25;3.83;;;14.40;99.90;;;;;;6181988;23;20005;-80
2023/06/12 02:51:43;;;;;;;3.10;2.65;;;14.40;99.90;;;;;;6155035;23;20013;-81
2023/06/12 02:54:08;;;;;;;4.85;2.53;;;14.40;99.90;;;;;;6156808;23;20327;-83
2023/06/12 02:56:34;;;;;;;4.78;2.80;;;14.40;99.90;;;;;;6181957;23;20004;-82
2023/06/12 02:59:00;;;;;;;5.78;3.67;;;14.40;99.90;;;;;;6155164;23;20013;-83
2023/06/12 03:01:27;;;;;;;5.93;2.70;;;14.40;99.90;;;;;;6157240;23;20017;-82
2023/06/12 03:03:53;;;;;;;5.07;3.30;;;14.40;99.90;;;;;;6154815;23;20019;-81
2023/06/12 03:06:23;;;;;;;4.90;2.95;;;14.40;99.90;;;;;;6155484;23;20100;-82
2023/06/12 03:08:49;;;;;;;5.47;3.45;;;14.40;99.90;;;;;;6181646;23;20020;-81
2023/06/12 03:11:14;;;;;;;4.57;3.15;;;14.40;99.90;;;;;;6155620;23;20002;-82
2023/06/12 03:13:40;;;;;;;5.63;2.95;;;14.40;99.90;;;;;;6155527;23;20005;-81
2023/06/12 03:16:09;;;;;;;5.13;3.13;;;14.40;99.90;;;;;;6181417;23;20001;-81
2023/06/12 03:18:35;;;;;;;5.30;3.67;;;14.40;99.90;;;;;;6180844;23;20001;-82
2023/06/12 03:21:01;;;;;;;3.20;2.65;;;14.30;99.90;;;;;;6155897;23;20096;-82
2023/06/12 03:23:26;;;;;;;4.93;2.85;;;14.30;99.90;;;;;;6156184;23;20009;-82
2023/06/12 03:25:52;;;;;;;4.70;2.85;;;14.30;99.90;;;;;;6153623;23;20264;-81
2023/06/12 03:28:18;;;;;;;5.45;3.20;;;14.30;99.90;;;;;;6180978;23;20009;-81
2023/06/12 03:30:43;;;;;;;5.97;3.03;;;14.30;99.90;;;;;;6154593;23;20009;-84
2023/06/12 03:33:09;;;;;;;5.30;3.00;;;14.30;99.90;;;;;;6180588;23;20012;-81
2023/06/12 03:35:35;;;;;;;5.72;2.97;;;14.20;99.90;;;;;;6154360;23;20065;-81
2023/06/12 03:38:01;;;;;;;3.10;2.58;;;14.30;99.90;;;;;;6154719;23;20036;-82
2023/06/12 03:40:26;;;;;;;3.55;2.75;;;14.30;99.90;;;;;;6156219;23;20082;-81
2023/06/12 03:42:52;;;;;;;8.35;3.20;;;14.30;99.90;;;;;;6183584;23;20658;-81
2023/06/12 03:45:17;;;;;;;5.15;2.88;;;14.30;99.90;;;;;;6155474;23;20007;-81
2023/06/12 03:47:43;;;;;;;3.38;2.80;;;14.30;99.90;;;;;;6155746;23;20025;-81
2023/06/12 03:50:11;;;;;;;5.32;3.08;;;14.30;99.90;;;;;;6181866;23;20001;-84
2023/06/12 03:52:36;;;;;;;6.40;3.58;;;14.40;99.90;;;;;;6156519;23;20005;-80
2023/06/12 03:55:02;;;;;;;4.97;3.13;;;14.40;99.90;;;;;;6156066;23;20039;-81
2023/06/12 03:57:27;;;;;;;7.07;3.25;;;14.40;99.90;;;;;;6182879;23;20001;-82
2023/06/12 03:59:53;;;;;;;5.47;2.92;;;14.40;99.90;;;;;;6182707;23;20001;-82
2023/06/12 04:02:19;;;;;;;8.13;2.90;;;14.50;99.90;;;;;;6182326;23;20093;-83
2023/06/12 04:04:44;;;;;;;5.63;3.03;;;14.50;99.90;;;;;;6181858;23;20009;-83
2023/06/12 04:07:13;;;;;;;4.50;3.25;;;14.60;99.90;;;;;;6155964;23;20036;-81
2023/06/12 04:09:38;;;;;;;7.35;3.10;;;14.60;99.90;;;;;;6182058;23;20338;-82
2023/06/12 04:12:04;;;;;;;4.50;2.63;;;14.60;99.90;;;;;;6183377;23;20029;-82
2023/06/12 04:14:30;;;;;;;4.65;3.17;;;14.70;99.90;;;;;;6155805;23;20462;-81
2023/06/12 04:16:55;;;;;;;6.18;2.97;;;14.70;99.90;;;;;;6183069;23;19997;-84
2023/06/12 04:19:21;;;;;;;5.15;3.15;;;14.80;99.90;;;;;;6182825;23;20072;-83
2023/06/12 04:21:46;;;;;;;4.38;2.90;;;14.80;99.90;;;;;;6157305;23;20005;-83
2023/06/12 04:24:15;;;;;;;3.72;3.25;;;14.80;99.90;;;;;;6181732;23;20036;-82
2023/06/12 04:26:44;;;;;;;7.47;3.88;;;14.80;99.90;;;;;;6189668;23;19997;-83
2023/06/12 04:29:12;;;;;;;7.32;3.08;;;14.80;99.90;;;;;;6155673;23;20053;-82
2023/06/12 04:31:37;;;;;;;4.47;3.30;;;14.90;99.90;;;;;;6181555;23;20096;-82
2023/06/12 04:34:03;;;;;;;4.72;2.47;;;14.90;99.90;;;;;;6155944;23;20041;-82
2023/06/12 04:36:33;;;;;;;5.32;3.20;;;14.90;99.90;;;;;;6153478;23;20001;-83
2023/06/12 04:38:59;;;;;;;4.30;2.65;;;15.00;99.90;;;;;;6155923;23;20390;-82
2023/06/12 04:41:27;;;;;;;2.85;2.60;;;14.90;99.90;;;;;;6153780;23;20009;-81
2023/06/12 04:43:58;;;;;;;5.85;3.00;;;14.90;99.90;;;;;;6155068;23;20013;-81
2023/06/12 04:46:24;;;;;;;4.78;2.85;;;14.90;99.90;;;;;;6183576;23;19993;-82
2023/06/12 04:48:50;;;;;;;5.97;3.13;;;14.90;99.90;;;;;;6161563;23;20053;-85
2023/06/12 04:51:16;;;;;;;3.78;3.28;;;14.90;99.90;;;;;;6182638;23;20088;-81
2023/06/12 04:53:43;;;;;;;4.15;3.70;;;15.00;99.90;;;;;;6156192;23;20009;-81
2023/06/12 04:56:09;;;;;;;4.50;3.47;;;15.00;99.90;;;;;;6155464;23;20013;-83
2023/06/12 04:58:41;;;;;;;3.47;3.17;;;15.00;99.90;;;;;;6182880;23;20031;-81
2023/06/12 05:01:07;;;;;;;5.95;3.30;;;15.00;99.90;;;;;;6154945;23;20357;-81
2023/06/12 05:03:33;;;;;;;8.32;3.85;;;15.00;99.90;;;;;;6182447;23;20033;-82
2023/06/12 05:05:59;;;;;;;5.50;3.40;;;15.10;99.90;;;;;;6154924;23;20299;-81
2023/06/12 05:08:25;;;;;;;3.78;2.50;;;15.20;99.90;;;;;;6181485;23;20004;-81
2023/06/12 05:10:52;;;;;;;4.88;2.90;;;15.20;99.90;;;;;;6182625;23;20008;-82
2023/06/12 05:13:17;;;;;;;3.75;3.08;;;15.20;99.90;;;;;;6181867;23;19997;-82
2023/06/12 05:15:43;;;;;;;5.72;3.20;;;15.30;99.90;;;;;;6155055;23;20016;-82
2023/06/12 05:18:09;;;;;;;5.13;3.42;;;15.40;99.90;;;;;;6156184;23;20028;-82
2023/06/12 05:20:35;;;;;;;4.72;3.63;;;15.50;99.90;;;;;;6156148;23;20009;-82
2023/06/12 05:23:00;;;;;;;4.30;3.03;;;15.60;99.90;;;;;;6182554;23;20020;-83
2023/06/12 05:25:26;;;;;;;4.57;2.92;;;15.70;99.90;;;;;;6153115;23;20017;-81
2023/06/12 05:27:51;;;;;;;6.00;3.10;;;15.80;99.90;;;;;;6183818;23;20671;-83
2023/06/12 05:30:17;;;;;;;3.85;3.53;;;15.90;99.90;;;;;;6155507;23;20438;-84
2023/06/12 05:32:42;;;;;;;5.03;3.00;;;16.10;99.90;;;;;;6156110;23;20355;-82
2023/06/12 05:35:08;;;;;;;5.13;3.35;;;16.10;99.90;;;;;;6156775;23;20005;-83
2023/06/12 05:37:34;;;;;;;5.05;3.50;;;16.20;99.90;;;;;;6154742;23;20430;-82
2023/06/12 05:40:00;;;;;;;5.03;3.22;;;16.30;99.90;;;;;;6155273;23;20032;-82
2023/06/12 05:42:25;;;;;;;4.00;3.35;;;16.40;99.90;;;;;;6183634;23;20028;-82
2023/06/12 05:44:51;;;;;;;5.85;3.25;;;16.50;99.90;;;;;;6155908;23;20008;-82
2023/06/12 05:47:17;;;;;;;5.28;3.10;;;16.50;99.90;;;;;;6183165;23;20051;-84
2023/06/12 05:49:42;;;;;;;5.68;3.30;;;16.60;99.90;;;;;;6184754;23;20079;-82
2023/06/12 05:52:08;;;;;;;5.85;3.50;;;16.70;99.90;;;;;;6163335;23;20463;-81
2023/06/12 05:54:35;;;;;;;3.92;2.92;;;16.80;99.90;;;;;;6154231;23;20015;-82
2023/06/12 05:57:01;;;;;;;5.50;3.25;;;16.90;99.90;;;;;;6182265;23;20076;-82
2023/06/12 05:59:26;;;;;;;7.25;3.60;;;17.00;99.90;;;;;;6156742;23;20080;-82
2023/06/12 06:01:52;;;;;;;4.25;3.15;;;17.20;99.90;;;;;;6154656;23;20567;-80
2023/06/12 06:04:18;;;;;;;7.00;3.15;;;17.50;99.90;;;;;;6161011;23;20005;-82
2023/06/12 06:06:44;;;;;;;4.05;3.65;;;17.80;99.90;;;;;;6189118;23;20763;-83
2023/06/12 06:09:09;;;;;;;5.05;3.75;;;18.10;99.90;;;;;;6159924;23;20023;-82
2023/06/12 06:11:35;;;;;;;4.03;3.72;;;18.30;99.90;;;;;;6157064;23;20297;-81
2023/06/12 06:14:00;;;;;;;6.07;3.63;;;18.60;99.90;;;;;;6153004;23;20009;-82
2023/06/12 06:16:26;;;;;;;6.97;4.25;;;18.80;99.90;;;;;;6158167;23;20015;-86
2023/06/12 06:18:52;;;;;;;8.73;3.90;;;19.10;99.90;;;;;;6157051;23;20009;-82
2023/06/12 06:21:18;;;;;;;4.85;4.38;;;19.40;99.90;;;;;;6156414;23;20663;-83
2023/06/12 06:23:43;;;;;;;7.53;4.35;;;19.70;99.90;;;;;;6159726;23;20063;-85
2023/06/12 06:26:09;;;;;;;5.47;3.83;;;20.00;99.60;;;;;;6159444;23;20441;-82
2023/06/12 06:28:36;;;;;;;4.65;4.20;;;20.20;98.70;;;;;;6156271;23;20009;-83
2023/06/12 06:31:03;;;;;;;6.53;4.15;;;20.50;98.70;;;;;;6178321;23;20013;-81
2023/06/12 06:33:29;;;;;;;5.32;3.50;;;20.70;98.70;;;;;;6153787;23;20425;-82
2023/06/12 06:35:55;;;;;;;8.10;4.38;;;21.00;97.80;;;;;;6183778;23;20013;-84
2023/06/12 06:38:21;;;;;;;7.05;4.07;;;21.10;97.00;;;;;;6156945;23;20012;-85
2023/06/12 06:40:47;;;;;;;6.75;3.67;;;21.30;95.50;;;;;;6156175;23;20402;-82
2023/06/12 06:43:13;;;;;;;3.90;3.55;;;21.40;95.00;;;;;;6156742;23;20008;-82
2023/06/12 06:45:38;;;;;;;5.70;4.38;;;21.50;94.80;;;;;;6158122;23;20367;-81
2023/06/12 06:48:05;;;;;;;4.97;4.00;;;21.70;94.50;;;;;;6161284;23;20346;-83
2023/06/12 06:50:30;;;;;;;4.88;4.32;;;21.80;94.60;;;;;;6165217;23;20004;-86
2023/06/12 06:52:56;;;;;;;14.00;4.40;;;22.00;92.90;;;;;;6164898;23;20005;-81
2023/06/12 06:55:22;;;;;;;5.65;4.13;;;22.10;93.10;;;;;;6165957;23;20450;-84
2023/06/12 06:57:50;;;;;;;5.35;4.07;;;22.20;93.00;;;;;;6162670;23;20005;-84
2023/06/12 07:00:16;;;;;;;4.47;4.07;;;22.30;92.60;;;;;;6187265;23;20028;-83
2023/06/12 07:02:45;;;;;;;6.15;4.03;;;22.50;92.10;;;;;;6161298;23;20040;-83
2023/06/12 07:05:11;;;;;;;5.15;3.67;;;22.60;92.20;;;;;;6162066;23;20048;-83
2023/06/12 07:07:38;;;;;;;5.90;3.72;;;22.80;93.10;;;;;;6187924;23;19997;-85
2023/06/12 07:10:04;;;;;;;8.07;3.50;;;23.00;91.20;;;;;;6162897;23;20009;-84
2023/06/12 07:12:30;;;;;;;10.60;4.20;;;23.20;91.00;;;;;;6163188;23;20016;-84
2023/06/12 07:14:56;;;;;;;7.43;3.83;;;23.30;90.10;;;;;;6164981;23;20327;-84
2023/06/12 07:17:21;;;;;;;5.20;3.90;;;23.40;89.70;;;;;;6164853;23;20001;-85
2023/06/12 07:19:47;;;;;;;3.78;3.47;;;23.50;88.90;;;;;;6164809;23;20013;-85
2023/06/12 07:22:12;;;;;;;5.05;3.97;;;23.60;87.40;;;;;;6169219;23;20025;-84
2023/06/12 07:24:38;;;;;;;5.13;4.00;;;23.70;87.50;;;;;;6168163;23;20015;-84
2023/06/12 07:27:04;;;;;;;6.75;3.88;;;23.90;88.20;;;;;;6170937;23;20088;-84
2023/06/12 07:29:29;;;;;;;6.07;3.83;;;24.10;86.60;;;;;;6171744;23;20028;-83
2023/06/12 07:31:55;;;;;;;3.88;3.47;;;24.20;85.20;;;;;;6165301;23;20023;-84
2023/06/12 07:34:21;;;;;;;6.30;3.47;;;24.30;84.40;;;;;;6157240;23;20016;-83
2023/06/12 07:36:46;;;;;;;5.18;3.50;;;24.40;83.30;;;;;;6186900;23;20080;-84
2023/06/12 07:39:12;;;;;;;5.47;3.50;;;24.40;84.20;;;;;;6159007;23;20001;-83
2023/06/12 07:41:39;;;;;;;3.67;3.10;;;24.50;84.00;;;;;;6187709;23;20002;-81
2023/06/12 07:44:06;;;;;;;3.92;3.55;;;24.70;84.50;;;;;;6157965;23;20015;-83
2023/06/12 07:46:32;;;;;;;5.32;3.53;;;24.90;82.70;;;;;;6157660;23;20462;-84
2023/06/12 07:48:57;;;;;;;9.32;3.90;;;24.80;81.30;;;;;;6159117;23;20001;-84
2023/06/12 07:51:23;;;;;;;3.47;3.17;;;25.00;81.80;;;;;;6161107;23;20093;-85
2023/06/12 07:53:49;;;;;;;4.72;3.53;;;25.10;81.00;;;;;;6160936;23;20013;-84
2023/06/12 07:56:16;;;;;;;7.78;4.05;;;25.30;81.90;;;;;;6166998;23;20009;-82
2023/06/12 07:58:42;;;;;;;5.13;3.20;;;25.40;81.00;;;;;;6165518;23;20661;-85
2023/06/12 08:01:07;;;;;;;5.07;3.50;;;25.60;81.40;;;;;;6192431;23;20021;-83
2023/06/12 08:03:38;;;;;;;5.35;3.67;;;25.80;79.80;;;;;;6190376;23;20045;-83
2023/06/12 08:06:09;;;;;;;4.82;3.45;;;26.00;79.70;;;;;;6180284;23;19994;-82
2023/06/12 08:08:46;;;;;;;4.25;3.45;;;26.10;78.60;;;;;;6153929;23;20005;-82
2023/06/12 08:11:13;;;;;;;4.03;3.10;;;26.30;77.30;;;;;;6154682;23;20540;-83
2023/06/12 08:13:39;;;;;;;4.10;3.28;;;26.40;78.80;;;;;;6153972;23;20334;-81
2023/06/12 08:16:05;;;;;;;4.22;3.60;;;26.40;74.90;;;;;;6153172;23;20387;-80
2023/06/12 08:18:30;;;;;;;6.25;3.70;;;26.40;75.90;;;;;;6152775;23;20043;-81
2023/06/12 08:20:57;;;;;;;4.50;3.72;;;26.60;76.50;;;;;;6154917;23;20005;-82
2023/06/12 08:23:23;;;;;;;3.45;3.15;;;26.80;75.20;;;;;;6180323;23;20064;-82
2023/06/12 08:25:48;;;;;;;5.65;3.55;;;27.00;75.30;;;;;;6153861;23;20020;-82
2023/06/12 08:28:14;;;;;;;4.93;3.53;;;27.10;73.20;;;;;;6155979;23;20398;-84
2023/06/12 08:30:40;;;;;;;4.95;4.07;;;27.20;72.30;;;;;;6181866;23;20104;-82
2023/06/12 08:33:06;;;;;;;5.05;3.67;;;27.30;72.00;;;;;;6155609;23;20088;-82
2023/06/12 08:35:34;;;;;;;6.95;3.85;;;27.40;72.50;;;;;;6178871;23;20100;-82
2023/06/12 08:38:00;;;;;;;3.47;3.17;;;27.50;72.00;;;;;;6156022;23;20031;-82
2023/06/12 08:40:26;;;;;;;5.55;2.88;;;27.70;71.70;;;;;;6156180;23;20005;-82
2023/06/12 08:42:52;;;;;;;5.93;3.28;;;27.90;72.10;;;;;;6156339;23;20441;-83
2023/06/12 08:45:19;;;;;;;5.97;3.70;;;28.10;70.00;;;;;;6154939;23;20001;-82
2023/06/12 08:47:49;;;;;;;3.63;3.33;;;28.10;69.50;;;;;;6156362;23;20064;-82
2023/06/12 08:50:19;;;;;;;8.27;3.50;;;27.90;69.60;;;;;;6155885;23;20730;-81
2023/06/12 08:52:47;;;;;;;4.53;3.58;;;27.90;71.00;;;;;;6155915;23;20028;-84
2023/06/12 08:55:16;;;;;;;5.00;3.80;;;27.80;67.90;;;;;;6156271;23;20016;-81
2023/06/12 08:57:43;;;;;;;4.78;3.70;;;27.80;68.00;;;;;;6156365;23;20051;-82
2023/06/12 09:00:13;;;;;;;3.90;3.30;;;27.90;68.10;;;;;;6154855;23;20009;-82
2023/06/12 09:02:46;;;;;;;6.72;3.08;;;28.00;68.00;;;;;;6156983;23;20071;-82
2023/06/12 09:05:19;;;;;;;3.78;2.83;;;28.00;66.20;;;;;;6182745;23;20067;-82
2023/06/12 09:07:47;;;;;;;5.00;3.28;;;28.10;67.20;;;;;;6158981;23;20001;-83
2023/06/12 09:10:14;;;;;;;5.72;3.30;;;28.10;67.70;;;;;;6160646;23;20020;-81
2023/06/12 09:12:43;;;;;;;3.25;2.95;;;28.20;66.50;;;;;;6155657;23;20009;-84
2023/06/12 09:15:09;;;;;;;6.00;3.17;;;28.10;65.80;;;;;;6154572;23;20067;-81
2023/06/12 09:17:37;;;;;;;4.97;3.22;;;28.10;65.80;;;;;;6182081;23;20004;-84
2023/06/12 09:20:04;;;;;;;5.25;3.15;;;28.10;65.00;;;;;;6156219;23;20383;-83
2023/06/12 09:22:30;;;;;;;3.30;3.00;;;28.10;66.00;;;;;;6155347;23;20523;-83
2023/06/12 09:24:57;;;;;;;4.82;3.40;;;28.10;65.20;;;;;;6154755;23;20071;-84
2023/06/12 09:27:22;;;;;;;3.10;2.90;;;28.10;64.20;;;;;;6182761;23;20407;-81
2023/06/12 09:29:48;;;;;;;3.17;2.88;;;28.10;65.60;;;;;;6156187;23;20047;-81
2023/06/12 09:32:15;;;;;;;4.55;3.10;;;28.10;64.80;;;;;;6182171;23;20009;-82
2023/06/12 09:34:50;;;;;;;3.17;2.65;;;28.00;64.40;;;;;;6155327;23;20009;-84
2023/06/12 09:37:16;;;;;;;4.40;2.83;;;27.90;62.90;;;;;;6154756;23;20390;-83
2023/06/12 09:39:43;;;;;;;3.47;3.17;;;27.90;64.60;;;;;;6155635;23;20346;-83
2023/06/12 09:42:11;;;;;;;4.30;2.83;;;28.00;64.10;;;;;;6156970;23;20430;-82
2023/06/12 09:44:38;;;;;;;4.72;3.22;;;28.10;65.50;;;;;;6155804;23;20096;-84
2023/06/12 09:47:05;;;;;;;5.05;2.92;;;28.20;63.50;;;;;;6156788;23;20005;-82
2023/06/12 09:49:32;;;;;;;3.95;2.60;;;28.30;63.10;;;;;;6183119;23;20001;-83
2023/06/12 09:52:05;;;;;;;3.88;2.70;;;28.40;63.20;;;;;;6156545;23;20016;-83
2023/06/12 09:54:32;;;;;;;4.53;3.75;;;28.40;61.90;;;;;;6161463;23;20012;-81
2023/06/12 09:57:00;;;;;;;4.13;2.88;;;28.30;61.90;;;;;;6165089;23;20009;-81
2023/06/12 09:59:27;;;;;;;3.92;3.20;;;28.30;61.50;;;;;;6182178;23;20012;-84
2023/06/12 10:02:14;;;;;;;4.38;3.10;;;28.20;62.40;;;;;;6155583;23;20453;-83
2023/06/12 10:04:56;;;;;;;4.53;2.53;;;28.30;60.30;;;;;;6155081;23;20134;-83
2023/06/12 10:07:28;;;;;;;3.75;3.08;;;28.10;60.50;;;;;;6155430;23;20418;-84
2023/06/12 10:09:54;;;;;;;3.55;3.25;;;28.10;60.60;;;;;;6155116;23;20092;-81
2023/06/12 10:12:21;;;;;;;3.85;3.45;;;28.00;59.60;;;;;;6155363;23;20095;-81
2023/06/12 10:14:49;;;;;;;4.28;3.10;;;27.90;59.30;;;;;;6154615;23;20009;-84
2023/06/12 10:17:17;;;;;;;3.80;2.83;;;27.80;61.10;;;;;;6158339;23;20012;-83
2023/06/12 10:19:47;;;;;;;3.40;2.92;;;27.70;60.10;;;;;;6164445;23;20060;-81
2023/06/12 10:22:13;;;;;;;3.55;3.05;;;27.70;60.50;;;;;;6162903;23;20076;-81
2023/06/12 10:24:40;;;;;;;3.17;2.85;;;27.70;60.30;;;;;;6157849;23;20005;-82
2023/06/12 10:27:06;;;;;;;3.25;2.95;;;27.70;60.10;;;;;;6157129;23;20097;-84
2023/06/12 10:29:36;;;;;;;6.72;2.90;;;27.70;59.00;;;;;;6156720;23;20017;-82
2023/06/12 10:32:10;;;;;;;7.78;3.15;;;27.70;59.50;;;;;;6156094;23;20017;-84
2023/06/12 10:34:45;;;;;;;3.80;2.80;;;27.60;60.00;;;;;;6155744;23;20001;-82
2023/06/12 10:37:25;;;;;;;4.50;3.20;;;27.70;60.60;;;;;;6154381;23;20082;-81
2023/06/12 10:40:15;;;;;;;3.20;2.92;;;27.70;60.10;;;;;;6152756;23;20059;-81
2023/06/12 10:42:55;;;;;;;3.10;2.90;;;27.70;59.70;;;;;;6157109;23;20035;-82
2023/06/12 10:45:26;;;;;;;5.05;3.38;;;27.70;59.20;;;;;;6183626;23;20442;-83
2023/06/12 10:48:06;;;;;;;3.85;3.45;;;27.60;60.00;;;;;;6161994;23;20023;-80
2023/06/12 10:50:35;;;;;;;5.63;2.78;;;27.60;58.40;;;;;;6156111;23;20032;-83
2023/06/12 10:53:14;;;;;;;6.68;2.90;;;27.50;58.90;;;;;;6156340;23;20001;-81
2023/06/12 10:55:41;;;;;;;4.55;2.90;;;27.50;59.10;;;;;;6182263;23;20571;-80
2023/06/12 10:58:20;;;;;;;3.05;2.53;;;27.40;59.00;;;;;;6181781;23;20096;-83
2023/06/12 11:00:51;;;;;;;3.95;2.88;;;27.40;59.20;;;;;;6154000;23;20024;-81
2023/06/12 11:03:19;;;;;;;3.92;2.70;;;27.40;59.30;;;;;;6155124;23;20072;-82
2023/06/12 11:05:51;;;;;;;3.20;2.92;;;27.40;59.50;;;;;;6181394;23;20067;-83
2023/06/12 11:08:18;;;;;;;4.32;3.17;;;27.50;58.60;;;;;;6182198;23;20016;-82
2023/06/12 11:10:44;;;;;;;6.00;3.28;;;27.50;58.30;;;;;;6154536;23;20346;-81
2023/06/12 11:13:10;;;;;;;3.60;3.10;;;27.50;58.80;;;;;;6154180;23;20016;-81
2023/06/12 11:15:46;;;;;;;3.75;3.13;;;27.50;59.10;;;;;;6153372;23;20024;-81
2023/06/12 11:18:13;;;;;;;4.50;2.80;;;27.50;59.10;;;;;;6155275;23;20005;-82
2023/06/12 11:20:40;;;;;;;3.67;3.20;;;27.60;59.30;;;;;;6154689;23;20016;-85
2023/06/12 11:23:06;;;;;;;3.20;2.80;;;27.70;58.20;;;;;;6155286;23;20430;-80
2023/06/12 11:25:33;;;;;;;3.35;3.05;;;27.70;58.40;;;;;;6180903;23;20004;-82
2023/06/12 11:27:59;;;;;;;5.32;2.95;;;27.70;57.80;;;;;;6154503;23;20571;-83
2023/06/12 11:30:24;;;;;;;4.30;2.70;;;27.70;57.10;;;;;;6154172;23;20175;-82
2023/06/12 11:32:50;;;;;;;4.88;3.25;;;27.70;57.90;;;;;;6154802;23;20048;-84
2023/06/12 11:35:16;;;;;;;3.88;2.83;;;27.70;58.50;;;;;;6180476;23;20055;-80
2023/06/12 11:37:42;;;;;;;3.35;2.60;;;27.60;57.70;;;;;;6152599;23;20006;-83
2023/06/12 11:40:11;;;;;;;3.30;2.92;;;27.60;57.20;;;;;;6153025;23;20008;-81
2023/06/12 11:42:41;;;;;;;6.93;3.35;;;27.60;58.20;;;;;;6154634;23;20008;-83
2023/06/12 11:45:11;;;;;;;3.65;3.30;;;27.70;58.30;;;;;;6181435;23;19994;-81
2023/06/12 11:47:42;;;;;;;5.32;3.13;;;27.70;57.50;;;;;;6154878;23;20028;-83
2023/06/12 11:50:11;;;;;;;4.78;2.70;;;27.70;58.30;;;;;;6154374;23;20005;-82
2023/06/12 11:52:39;;;;;;;2.95;2.70;;;27.80;57.50;;;;;;6155303;23;20335;-80
2023/06/12 11:55:08;;;;;;;2.85;2.20;;;27.80;56.00;;;;;;6154955;23;20560;-83
2023/06/12 11:57:35;;;;;;;3.10;2.80;;;27.90;55.90;;;;;;6155280;23;19997;-82
2023/06/12 12:00:08;;;;;;;9.75;2.50;;;27.90;55.40;;;;;;6182073;23;20008;-82
2023/06/12 12:02:39;;;;;;;4.78;2.72;;;27.90;55.70;;;;;;6157500;23;20017;-83
2023/06/12 12:05:07;;;;;;;5.30;3.00;;;27.90;55.00;;;;;;6155836;23;20005;-81
2023/06/12 12:07:32;;;;;;;5.93;2.92;;;27.80;54.20;;;;;;6183521;23;20080;-81
2023/06/12 12:10:11;;;;;;;2.75;2.55;;;27.80;54.80;;;;;;6156284;23;20033;-83
2023/06/12 12:13:02;;;;;;;3.25;2.67;;;27.80;54.90;;;;;;6156468;23;20398;-80
2023/06/12 12:15:29;;;;;;;5.28;2.72;;;27.80;54.60;;;;;;6155374;23;20001;-81
2023/06/12 12:17:55;;;;;;;3.35;2.22;;;27.90;54.40;;;;;;6157299;23;20016;-82
2023/06/12 12:20:22;;;;;;;3.42;2.60;;;27.90;53.30;;;;;;6183036;23;20003;-80
2023/06/12 12:22:53;;;;;;;4.80;2.33;;;27.90;54.40;;;;;;6184259;23;20076;-81
2023/06/12 12:25:27;;;;;;;3.13;2.17;;;28.00;53.70;;;;;;6162071;23;20001;-81
2023/06/12 12:27:54;;;;;;;2.42;2.22;;;28.00;53.30;;;;;;6156992;23;20016;-82
2023/06/12 12:30:21;;;;;;;6.85;2.88;;;28.00;54.00;;;;;;6159420;23;20001;-84
2023/06/12 12:32:51;;;;;;;4.50;2.65;;;28.10;53.90;;;;;;6159294;23;20394;-83
2023/06/12 12:35:17;;;;;;;2.60;2.40;;;28.10;54.10;;;;;;6152122;23;20009;-84
2023/06/12 12:37:43;;;;;;;3.00;2.80;;;28.10;53.10;;;;;;6180387;23;20005;-80
2023/06/12 12:40:10;;;;;;;4.53;2.47;;;28.10;54.40;;;;;;6154021;23;20075;-84
2023/06/12 12:42:41;;;;;;;3.45;2.58;;;28.20;54.60;;;;;;6181698;23;19997;-82
2023/06/12 12:45:09;;;;;;;3.53;2.50;;;28.30;53.60;;;;;;6155413;23;20311;-81
2023/06/12 12:47:34;;;;;;;3.38;2.40;;;28.40;53.50;;;;;;6182087;23;20001;-80
2023/06/12 12:50:01;;;;;;;3.17;2.67;;;28.40;54.30;;;;;;6156165;23;20092;-83